sensor_id;sensor_type;location;lat;lon;timestamp;temperature;humidity
76168;DHT22;64927;48.214;16.378;2023-07-29T00:02:22;24.90;50.00
76168;DHT22;64927;48.214;16.378;2023-07-29T00:04:48;24.80;50.10
76168;DHT22;64927;48.214;16.378;2023-07-29T00:07:13;24.80;50.00
76168;DHT22;64927;48.214;16.378;2023-07-29T00:09:39;24.80;50.20
76168;DHT22;64927;48.214;16.378;2023-07-29T00:12:05;24.80;50.40
76168;DHT22;64927;48.214;16.378;2023-07-29T00:14:30;24.80;50.40
76168;DHT22;64927;48.214;16.378;2023-07-29T00:16:56;24.80;50.70
76168;DHT22;64927;48.214;16.378;2023-07-29T00:19:21;24.80;50.60
76168;DHT22;64927;48.214;16.378;2023-07-29T00:21:49;24.80;50.60
76168;DHT22;64927;48.214;16.378;2023-07-29T00:24:14;24.80;50.70
76168;DHT22;64927;48.214;16.378;2023-07-29T00:26:40;24.80;50.80
76168;DHT22;64927;48.214;16.378;2023-07-29T00:29:05;24.80;50.80
76168;DHT22;64927;48.214;16.378;2023-07-29T00:31:31;24.70;51.00
76168;DHT22;64927;48.214;16.378;2023-07-29T00:33:57;24.80;51.10
76168;DHT22;64927;48.214;16.378;2023-07-29T00:36:23;24.80;51.00
76168;DHT22;64927;48.214;16.378;2023-07-29T00:38:49;24.80;51.00
76168;DHT22;64927;48.214;16.378;2023-07-29T00:41:15;24.70;51.10
76168;DHT22;64927;48.214;16.378;2023-07-29T00:43:41;24.70;51.10
76168;DHT22;64927;48.214;16.378;2023-07-29T00:46:08;24.70;51.20
76168;DHT22;64927;48.214;16.378;2023-07-29T00:48:35;24.70;51.20
76168;DHT22;64927;48.214;16.378;2023-07-29T00:51:00;24.60;51.10
76168;DHT22;64927;48.214;16.378;2023-07-29T00:53:26;24.60;51.20
76168;DHT22;64927;48.214;16.378;2023-07-29T00:55:52;24.70;51.20
76168;DHT22;64927;48.214;16.378;2023-07-29T00:58:17;24.70;51.10
76168;DHT22;64927;48.214;16.378;2023-07-29T01:00:44;24.70;50.90
76168;DHT22;64927;48.214;16.378;2023-07-29T01:03:10;24.80;50.80
76168;DHT22;64927;48.214;16.378;2023-07-29T01:08:41;24.70;51.00
76168;DHT22;64927;48.214;16.378;2023-07-29T01:11:22;24.70;51.20
76168;DHT22;64927;48.214;16.378;2023-07-29T01:13:53;24.60;51.10
76168;DHT22;64927;48.214;16.378;2023-07-29T01:16:29;24.70;51.20
76168;DHT22;64927;48.214;16.378;2023-07-29T01:18:57;24.70;51.10
76168;DHT22;64927;48.214;16.378;2023-07-29T01:21:26;24.60;51.20
76168;DHT22;64927;48.214;16.378;2023-07-29T01:23:52;24.70;51.30
76168;DHT22;64927;48.214;16.378;2023-07-29T01:26:18;24.60;51.10
76168;DHT22;64927;48.214;16.378;2023-07-29T01:28:49;24.60;51.20
76168;DHT22;64927;48.214;16.378;2023-07-29T01:31:33;24.60;51.20
76168;DHT22;64927;48.214;16.378;2023-07-29T01:34:06;24.60;51.30
76168;DHT22;64927;48.214;16.378;2023-07-29T01:36:36;24.60;51.30
76168;DHT22;64927;48.214;16.378;2023-07-29T01:39:06;24.50;51.50
76168;DHT22;64927;48.214;16.378;2023-07-29T01:41:33;24.50;51.80
76168;DHT22;64927;48.214;16.378;2023-07-29T01:43:59;24.40;51.90
76168;DHT22;64927;48.214;16.378;2023-07-29T01:46:26;24.30;52.40
76168;DHT22;64927;48.214;16.378;2023-07-29T01:48:51;24.30;52.30
76168;DHT22;64927;48.214;16.378;2023-07-29T01:51:19;24.20;52.40
76168;DHT22;64927;48.214;16.378;2023-07-29T01:53:46;24.30;52.60
76168;DHT22;64927;48.214;16.378;2023-07-29T01:56:14;24.20;52.90
76168;DHT22;64927;48.214;16.378;2023-07-29T01:58:40;24.20;53.00
76168;DHT22;64927;48.214;16.378;2023-07-29T02:01:07;24.20;53.00
76168;DHT22;64927;48.214;16.378;2023-07-29T02:03:33;24.20;53.10
76168;DHT22;64927;48.214;16.378;2023-07-29T02:05:59;24.20;53.10
76168;DHT22;64927;48.214;16.378;2023-07-29T02:08:27;24.20;52.50
76168;DHT22;64927;48.214;16.378;2023-07-29T02:10:52;24.20;52.60
76168;DHT22;64927;48.214;16.378;2023-07-29T02:13:18;24.20;52.00
76168;DHT22;64927;48.214;16.378;2023-07-29T02:15:46;24.30;52.00
76168;DHT22;64927;48.214;16.378;2023-07-29T02:18:11;24.30;51.80
76168;DHT22;64927;48.214;16.378;2023-07-29T02:20:37;24.20;51.80
76168;DHT22;64927;48.214;16.378;2023-07-29T02:23:02;24.30;51.80
76168;DHT22;64927;48.214;16.378;2023-07-29T02:25:28;24.40;51.60
76168;DHT22;64927;48.214;16.378;2023-07-29T02:27:56;24.30;51.60
76168;DHT22;64927;48.214;16.378;2023-07-29T02:30:21;24.20;51.40
76168;DHT22;64927;48.214;16.378;2023-07-29T02:32:47;24.30;50.90
76168;DHT22;64927;48.214;16.378;2023-07-29T02:35:13;24.20;51.00
76168;DHT22;64927;48.214;16.378;2023-07-29T02:37:38;24.20;50.70
76168;DHT22;64927;48.214;16.378;2023-07-29T02:40:04;24.10;50.30
76168;DHT22;64927;48.214;16.378;2023-07-29T02:42:31;24.10;50.20
76168;DHT22;64927;48.214;16.378;2023-07-29T02:44:57;24.20;50.00
76168;DHT22;64927;48.214;16.378;2023-07-29T02:47:22;24.20;49.70
76168;DHT22;64927;48.214;16.378;2023-07-29T02:49:48;24.20;49.20
76168;DHT22;64927;48.214;16.378;2023-07-29T02:52:15;24.30;49.00
76168;DHT22;64927;48.214;16.378;2023-07-29T02:54:41;24.30;48.70
76168;DHT22;64927;48.214;16.378;2023-07-29T02:57:07;24.20;48.70
76168;DHT22;64927;48.214;16.378;2023-07-29T02:59:32;24.20;48.60
76168;DHT22;64927;48.214;16.378;2023-07-29T03:02:00;24.20;48.30
76168;DHT22;64927;48.214;16.378;2023-07-29T03:04:25;24.30;48.00
76168;DHT22;64927;48.214;16.378;2023-07-29T03:06:53;24.20;48.10
76168;DHT22;64927;48.214;16.378;2023-07-29T03:09:19;24.20;47.80
76168;DHT22;64927;48.214;16.378;2023-07-29T03:11:44;24.10;47.90
76168;DHT22;64927;48.214;16.378;2023-07-29T03:14:10;24.10;47.50
76168;DHT22;64927;48.214;16.378;2023-07-29T03:16:38;24.10;48.00
76168;DHT22;64927;48.214;16.378;2023-07-29T03:19:03;24.20;47.60
76168;DHT22;64927;48.214;16.378;2023-07-29T03:21:30;24.10;47.70
76168;DHT22;64927;48.214;16.378;2023-07-29T03:23:56;24.10;47.60
76168;DHT22;64927;48.214;16.378;2023-07-29T03:26:21;24.10;47.80
76168;DHT22;64927;48.214;16.378;2023-07-29T03:28:47;24.20;47.80
76168;DHT22;64927;48.214;16.378;2023-07-29T03:31:13;24.20;48.10
76168;DHT22;64927;48.214;16.378;2023-07-29T03:33:38;24.10;47.90
76168;DHT22;64927;48.214;16.378;2023-07-29T03:36:04;24.10;47.80
76168;DHT22;64927;48.214;16.378;2023-07-29T03:38:30;24.10;48.00
76168;DHT22;64927;48.214;16.378;2023-07-29T03:40:58;24.10;47.80
76168;DHT22;64927;48.214;16.378;2023-07-29T03:43:24;24.00;48.00
76168;DHT22;64927;48.214;16.378;2023-07-29T03:45:49;24.10;48.10
76168;DHT22;64927;48.214;16.378;2023-07-29T03:48:15;24.10;48.10
76168;DHT22;64927;48.214;16.378;2023-07-29T03:50:40;24.10;48.30
76168;DHT22;64927;48.214;16.378;2023-07-29T03:53:08;24.00;48.40
76168;DHT22;64927;48.214;16.378;2023-07-29T03:55:37;24.00;48.20
76168;DHT22;64927;48.214;16.378;2023-07-29T03:58:05;24.10;48.60
76168;DHT22;64927;48.214;16.378;2023-07-29T04:00:31;24.10;48.50
76168;DHT22;64927;48.214;16.378;2023-07-29T04:02:56;24.00;48.30
76168;DHT22;64927;48.214;16.378;2023-07-29T04:05:22;24.00;48.30
76168;DHT22;64927;48.214;16.378;2023-07-29T04:07:48;24.10;48.10
76168;DHT22;64927;48.214;16.378;2023-07-29T04:10:13;24.20;48.00
76168;DHT22;64927;48.214;16.378;2023-07-29T04:12:43;24.20;47.80
76168;DHT22;64927;48.214;16.378;2023-07-29T04:15:11;24.30;47.60
76168;DHT22;64927;48.214;16.378;2023-07-29T04:17:39;24.30;47.60
76168;DHT22;64927;48.214;16.378;2023-07-29T04:20:05;24.20;47.70
76168;DHT22;64927;48.214;16.378;2023-07-29T04:22:30;24.20;47.70
76168;DHT22;64927;48.214;16.378;2023-07-29T04:24:56;24.30;47.70
76168;DHT22;64927;48.214;16.378;2023-07-29T04:27:22;24.20;47.60
76168;DHT22;64927;48.214;16.378;2023-07-29T04:29:47;24.20;48.00
76168;DHT22;64927;48.214;16.378;2023-07-29T04:32:13;24.20;48.00
76168;DHT22;64927;48.214;16.378;2023-07-29T04:34:38;24.10;48.40
76168;DHT22;64927;48.214;16.378;2023-07-29T04:37:04;24.10;48.50
76168;DHT22;64927;48.214;16.378;2023-07-29T04:39:32;24.20;48.50
76168;DHT22;64927;48.214;16.378;2023-07-29T04:41:58;24.20;48.70
76168;DHT22;64927;48.214;16.378;2023-07-29T04:44:26;24.20;48.70
76168;DHT22;64927;48.214;16.378;2023-07-29T04:46:52;24.20;48.80
76168;DHT22;64927;48.214;16.378;2023-07-29T04:49:17;24.20;48.90
76168;DHT22;64927;48.214;16.378;2023-07-29T04:51:43;24.30;48.70
76168;DHT22;64927;48.214;16.378;2023-07-29T04:54:09;24.30;48.70
76168;DHT22;64927;48.214;16.378;2023-07-29T04:56:34;24.40;48.70
76168;DHT22;64927;48.214;16.378;2023-07-29T04:59:00;24.30;48.80
76168;DHT22;64927;48.214;16.378;2023-07-29T05:01:26;24.20;49.80
76168;DHT22;64927;48.214;16.378;2023-07-29T05:03:54;24.20;49.20
76168;DHT22;64927;48.214;16.378;2023-07-29T05:06:19;24.30;48.70
76168;DHT22;64927;48.214;16.378;2023-07-29T05:08:45;24.30;48.90
76168;DHT22;64927;48.214;16.378;2023-07-29T05:11:11;24.20;48.80
76168;DHT22;64927;48.214;16.378;2023-07-29T05:13:36;24.30;49.10
76168;DHT22;64927;48.214;16.378;2023-07-29T05:16:03;24.40;49.70
76168;DHT22;64927;48.214;16.378;2023-07-29T05:18:31;24.30;49.00
76168;DHT22;64927;48.214;16.378;2023-07-29T05:20:56;24.20;48.60
76168;DHT22;64927;48.214;16.378;2023-07-29T05:23:26;24.20;49.10
76168;DHT22;64927;48.214;16.378;2023-07-29T05:25:52;24.50;49.60
76168;DHT22;64927;48.214;16.378;2023-07-29T05:28:20;24.60;48.40
76168;DHT22;64927;48.214;16.378;2023-07-29T05:30:45;24.60;48.40
76168;DHT22;64927;48.214;16.378;2023-07-29T05:33:11;24.70;48.00
76168;DHT22;64927;48.214;16.378;2023-07-29T05:35:37;24.80;47.90
76168;DHT22;64927;48.214;16.378;2023-07-29T05:38:02;24.90;47.80
76168;DHT22;64927;48.214;16.378;2023-07-29T05:40:30;25.10;48.10
76168;DHT22;64927;48.214;16.378;2023-07-29T05:42:56;25.10;47.10
76168;DHT22;64927;48.214;16.378;2023-07-29T05:45:21;25.00;47.40
76168;DHT22;64927;48.214;16.378;2023-07-29T05:47:47;25.10;47.30
76168;DHT22;64927;48.214;16.378;2023-07-29T05:50:15;25.10;47.30
76168;DHT22;64927;48.214;16.378;2023-07-29T05:52:41;25.20;46.90
76168;DHT22;64927;48.214;16.378;2023-07-29T05:55:07;25.20;47.10
76168;DHT22;64927;48.214;16.378;2023-07-29T05:57:35;25.20;47.20
76168;DHT22;64927;48.214;16.378;2023-07-29T06:00:03;25.20;47.50
76168;DHT22;64927;48.214;16.378;2023-07-29T06:02:29;25.30;47.20
76168;DHT22;64927;48.214;16.378;2023-07-29T06:04:54;25.40;47.10
76168;DHT22;64927;48.214;16.378;2023-07-29T06:07:20;25.40;46.70
76168;DHT22;64927;48.214;16.378;2023-07-29T06:09:46;25.40;46.50
76168;DHT22;64927;48.214;16.378;2023-07-29T06:12:14;25.30;47.00
76168;DHT22;64927;48.214;16.378;2023-07-29T06:14:39;25.30;46.80
76168;DHT22;64927;48.214;16.378;2023-07-29T06:17:05;25.30;47.10
76168;DHT22;64927;48.214;16.378;2023-07-29T06:19:32;25.40;47.00
76168;DHT22;64927;48.214;16.378;2023-07-29T06:21:57;25.40;46.90
76168;DHT22;64927;48.214;16.378;2023-07-29T06:24:23;25.40;47.00
76168;DHT22;64927;48.214;16.378;2023-07-29T06:26:49;25.40;46.50
76168;DHT22;64927;48.214;16.378;2023-07-29T06:29:14;25.30;47.00
76168;DHT22;64927;48.214;16.378;2023-07-29T06:31:40;25.30;47.20
76168;DHT22;64927;48.214;16.378;2023-07-29T06:34:05;25.30;47.10
76168;DHT22;64927;48.214;16.378;2023-07-29T06:36:31;25.50;47.10
76168;DHT22;64927;48.214;16.378;2023-07-29T06:38:57;25.60;46.90
76168;DHT22;64927;48.214;16.378;2023-07-29T06:41:22;25.60;46.40
76168;DHT22;64927;48.214;16.378;2023-07-29T06:43:48;25.60;46.60
76168;DHT22;64927;48.214;16.378;2023-07-29T06:46:13;25.60;46.90
76168;DHT22;64927;48.214;16.378;2023-07-29T06:48:39;25.80;46.40
76168;DHT22;64927;48.214;16.378;2023-07-29T06:51:04;25.90;46.30
76168;DHT22;64927;48.214;16.378;2023-07-29T06:53:30;26.20;45.70
76168;DHT22;64927;48.214;16.378;2023-07-29T06:55:58;26.10;45.50
76168;DHT22;64927;48.214;16.378;2023-07-29T06:58:24;26.50;45.20
76168;DHT22;64927;48.214;16.378;2023-07-29T07:00:52;26.70;44.50
76168;DHT22;64927;48.214;16.378;2023-07-29T07:03:18;26.90;44.10
76168;DHT22;64927;48.214;16.378;2023-07-29T07:05:44;27.00;43.80
76168;DHT22;64927;48.214;16.378;2023-07-29T07:08:09;27.10;43.50
76168;DHT22;64927;48.214;16.378;2023-07-29T07:10:35;27.00;43.70
76168;DHT22;64927;48.214;16.378;2023-07-29T07:13:00;26.80;44.10
76168;DHT22;64927;48.214;16.378;2023-07-29T07:15:28;26.80;44.00
76168;DHT22;64927;48.214;16.378;2023-07-29T07:17:57;26.60;44.30
76168;DHT22;64927;48.214;16.378;2023-07-29T07:20:22;26.50;44.50
76168;DHT22;64927;48.214;16.378;2023-07-29T07:22:48;26.30;44.60
76168;DHT22;64927;48.214;16.378;2023-07-29T07:25:14;26.40;44.60
76168;DHT22;64927;48.214;16.378;2023-07-29T07:27:39;26.30;44.80
76168;DHT22;64927;48.214;16.378;2023-07-29T07:30:07;26.30;44.80
76168;DHT22;64927;48.214;16.378;2023-07-29T07:32:36;26.50;44.90
76168;DHT22;64927;48.214;16.378;2023-07-29T07:35:04;26.90;44.00
76168;DHT22;64927;48.214;16.378;2023-07-29T07:37:30;27.30;43.20
76168;DHT22;64927;48.214;16.378;2023-07-29T07:39:58;27.80;43.00
76168;DHT22;64927;48.214;16.378;2023-07-29T07:42:23;28.60;40.80
76168;DHT22;64927;48.214;16.378;2023-07-29T07:44:49;29.00;39.60
76168;DHT22;64927;48.214;16.378;2023-07-29T07:47:15;29.40;39.10
76168;DHT22;64927;48.214;16.378;2023-07-29T07:49:40;29.80;38.90
76168;DHT22;64927;48.214;16.378;2023-07-29T07:52:06;30.10;37.70
76168;DHT22;64927;48.214;16.378;2023-07-29T07:54:32;30.30;37.30
76168;DHT22;64927;48.214;16.378;2023-07-29T07:56:57;30.80;37.00
76168;DHT22;64927;48.214;16.378;2023-07-29T07:59:23;31.00;35.90
76168;DHT22;64927;48.214;16.378;2023-07-29T08:01:48;31.10;35.10
76168;DHT22;64927;48.214;16.378;2023-07-29T08:04:14;31.00;34.80
76168;DHT22;64927;48.214;16.378;2023-07-29T08:06:40;30.90;35.10
76168;DHT22;64927;48.214;16.378;2023-07-29T08:09:05;30.70;35.10
76168;DHT22;64927;48.214;16.378;2023-07-29T08:11:31;30.40;36.00
76168;DHT22;64927;48.214;16.378;2023-07-29T08:13:59;30.60;35.70
76168;DHT22;64927;48.214;16.378;2023-07-29T08:16:24;30.70;35.40
76168;DHT22;64927;48.214;16.378;2023-07-29T08:18:50;30.80;34.90
76168;DHT22;64927;48.214;16.378;2023-07-29T08:21:16;31.00;34.90
76168;DHT22;64927;48.214;16.378;2023-07-29T08:23:41;31.50;34.30
76168;DHT22;64927;48.214;16.378;2023-07-29T08:26:07;31.50;34.40
76168;DHT22;64927;48.214;16.378;2023-07-29T08:28:35;31.90;33.60
76168;DHT22;64927;48.214;16.378;2023-07-29T08:31:01;32.10;33.10
76168;DHT22;64927;48.214;16.378;2023-07-29T08:33:29;31.90;32.50
76168;DHT22;64927;48.214;16.378;2023-07-29T08:35:55;31.40;33.60
76168;DHT22;64927;48.214;16.378;2023-07-29T08:38:21;31.70;33.20
76168;DHT22;64927;48.214;16.378;2023-07-29T08:40:54;32.10;33.40
76168;DHT22;64927;48.214;16.378;2023-07-29T08:43:29;32.40;32.50
76168;DHT22;64927;48.214;16.378;2023-07-29T08:45:59;32.40;32.00
76168;DHT22;64927;48.214;16.378;2023-07-29T08:48:40;31.90;32.40
76168;DHT22;64927;48.214;16.378;2023-07-29T08:51:11;32.00;32.70
76168;DHT22;64927;48.214;16.378;2023-07-29T08:53:37;32.20;32.50
76168;DHT22;64927;48.214;16.378;2023-07-29T08:56:12;32.50;31.70
76168;DHT22;64927;48.214;16.378;2023-07-29T08:58:37;32.40;31.70
76168;DHT22;64927;48.214;16.378;2023-07-29T09:01:05;32.30;31.80
76168;DHT22;64927;48.214;16.378;2023-07-29T09:03:33;32.60;32.50
76168;DHT22;64927;48.214;16.378;2023-07-29T09:06:02;32.60;31.20
76168;DHT22;64927;48.214;16.378;2023-07-29T09:08:30;32.70;31.40
76168;DHT22;64927;48.214;16.378;2023-07-29T09:10:57;32.80;31.70
76168;DHT22;64927;48.214;16.378;2023-07-29T09:13:23;32.80;31.30
76168;DHT22;64927;48.214;16.378;2023-07-29T09:15:48;33.00;31.10
76168;DHT22;64927;48.214;16.378;2023-07-29T09:18:19;32.80;30.70
76168;DHT22;64927;48.214;16.378;2023-07-29T09:20:51;33.00;31.60
76168;DHT22;64927;48.214;16.378;2023-07-29T09:23:17;33.20;30.70
76168;DHT22;64927;48.214;16.378;2023-07-29T09:25:46;33.00;30.90
76168;DHT22;64927;48.214;16.378;2023-07-29T09:28:14;33.20;30.20
76168;DHT22;64927;48.214;16.378;2023-07-29T09:30:40;33.00;31.50
76168;DHT22;64927;48.214;16.378;2023-07-29T09:33:07;32.90;30.60
76168;DHT22;64927;48.214;16.378;2023-07-29T09:35:34;32.80;30.50
76168;DHT22;64927;48.214;16.378;2023-07-29T09:38:04;32.90;30.70
76168;DHT22;64927;48.214;16.378;2023-07-29T09:40:37;33.20;30.30
76168;DHT22;64927;48.214;16.378;2023-07-29T09:43:04;33.50;30.30
76168;DHT22;64927;48.214;16.378;2023-07-29T09:45:30;33.50;30.20
76168;DHT22;64927;48.214;16.378;2023-07-29T09:47:58;33.70;29.90
76168;DHT22;64927;48.214;16.378;2023-07-29T09:50:25;33.80;29.80
76168;DHT22;64927;48.214;16.378;2023-07-29T09:52:51;33.90;29.40
76168;DHT22;64927;48.214;16.378;2023-07-29T09:55:19;33.70;29.50
76168;DHT22;64927;48.214;16.378;2023-07-29T09:57:45;33.60;29.90
76168;DHT22;64927;48.214;16.378;2023-07-29T10:00:11;33.50;29.50
76168;DHT22;64927;48.214;16.378;2023-07-29T10:02:42;33.20;29.60
76168;DHT22;64927;48.214;16.378;2023-07-29T10:05:09;32.90;29.80
76168;DHT22;64927;48.214;16.378;2023-07-29T10:07:40;32.70;29.90
76168;DHT22;64927;48.214;16.378;2023-07-29T10:10:07;32.40;30.20
76168;DHT22;64927;48.214;16.378;2023-07-29T10:12:34;32.30;30.80
76168;DHT22;64927;48.214;16.378;2023-07-29T10:15:04;32.40;30.90
76168;DHT22;64927;48.214;16.378;2023-07-29T10:17:33;32.40;31.00
76168;DHT22;64927;48.214;16.378;2023-07-29T10:20:03;32.40;30.80
76168;DHT22;64927;48.214;16.378;2023-07-29T10:22:35;32.40;30.80
76168;DHT22;64927;48.214;16.378;2023-07-29T10:25:08;32.40;31.00
76168;DHT22;64927;48.214;16.378;2023-07-29T10:27:43;32.50;31.00
76168;DHT22;64927;48.214;16.378;2023-07-29T10:30:13;32.50;30.90
76168;DHT22;64927;48.214;16.378;2023-07-29T10:32:44;32.40;30.90
76168;DHT22;64927;48.214;16.378;2023-07-29T10:35:11;32.50;30.90
76168;DHT22;64927;48.214;16.378;2023-07-29T10:37:38;32.60;30.50
76168;DHT22;64927;48.214;16.378;2023-07-29T10:40:07;32.60;30.70
76168;DHT22;64927;48.214;16.378;2023-07-29T10:42:35;32.40;30.10
76168;DHT22;64927;48.214;16.378;2023-07-29T10:45:18;32.60;30.20
76168;DHT22;64927;48.214;16.378;2023-07-29T10:47:43;32.60;30.20
76168;DHT22;64927;48.214;16.378;2023-07-29T10:50:18;32.70;30.00
76168;DHT22;64927;48.214;16.378;2023-07-29T10:52:48;33.00;29.40
76168;DHT22;64927;48.214;16.378;2023-07-29T10:58:08;33.00;29.80
76168;DHT22;64927;48.214;16.378;2023-07-29T11:00:37;33.10;29.30
76168;DHT22;64927;48.214;16.378;2023-07-29T11:03:06;33.00;28.70
76168;DHT22;64927;48.214;16.378;2023-07-29T11:05:51;33.00;29.40
76168;DHT22;64927;48.214;16.378;2023-07-29T11:08:18;33.00;28.90
76168;DHT22;64927;48.214;16.378;2023-07-29T11:11:11;33.00;28.90
76168;DHT22;64927;48.214;16.378;2023-07-29T11:13:40;32.90;29.10
76168;DHT22;64927;48.214;16.378;2023-07-29T11:16:06;32.80;29.10
76168;DHT22;64927;48.214;16.378;2023-07-29T11:18:35;33.00;29.00
76168;DHT22;64927;48.214;16.378;2023-07-29T11:21:04;33.10;28.60
76168;DHT22;64927;48.214;16.378;2023-07-29T11:23:34;33.00;28.90
76168;DHT22;64927;48.214;16.378;2023-07-29T11:26:01;33.20;28.70
76168;DHT22;64927;48.214;16.378;2023-07-29T11:28:30;33.30;28.20
76168;DHT22;64927;48.214;16.378;2023-07-29T11:30:58;33.20;28.10
76168;DHT22;64927;48.214;16.378;2023-07-29T11:33:27;32.90;28.60
76168;DHT22;64927;48.214;16.378;2023-07-29T11:35:55;32.80;28.70
76168;DHT22;64927;48.214;16.378;2023-07-29T11:38:23;32.70;28.70
76168;DHT22;64927;48.214;16.378;2023-07-29T11:41:01;32.60;28.90
76168;DHT22;64927;48.214;16.378;2023-07-29T11:43:35;32.60;29.00
76168;DHT22;64927;48.214;16.378;2023-07-29T11:46:01;32.50;29.00
76168;DHT22;64927;48.214;16.378;2023-07-29T11:48:28;32.40;29.20
76168;DHT22;64927;48.214;16.378;2023-07-29T11:50:56;32.50;29.40
76168;DHT22;64927;48.214;16.378;2023-07-29T11:53:25;32.50;29.70
76168;DHT22;64927;48.214;16.378;2023-07-29T11:55:51;32.70;29.30
76168;DHT22;64927;48.214;16.378;2023-07-29T11:58:18;32.90;28.80
76168;DHT22;64927;48.214;16.378;2023-07-29T12:00:44;33.10;28.80
76168;DHT22;64927;48.214;16.378;2023-07-29T12:03:11;33.40;28.60
76168;DHT22;64927;48.214;16.378;2023-07-29T12:05:37;33.00;28.30
76168;DHT22;64927;48.214;16.378;2023-07-29T12:08:03;32.90;28.50
76168;DHT22;64927;48.214;16.378;2023-07-29T12:10:29;32.90;28.60
76168;DHT22;64927;48.214;16.378;2023-07-29T12:12:55;33.00;28.50
76168;DHT22;64927;48.214;16.378;2023-07-29T12:15:24;32.80;28.50
76168;DHT22;64927;48.214;16.378;2023-07-29T12:17:54;33.00;28.60
76168;DHT22;64927;48.214;16.378;2023-07-29T12:20:21;33.10;28.30
76168;DHT22;64927;48.214;16.378;2023-07-29T12:22:52;33.20;28.10
76168;DHT22;64927;48.214;16.378;2023-07-29T12:25:18;33.20;28.00
76168;DHT22;64927;48.214;16.378;2023-07-29T12:27:44;33.10;28.40
76168;DHT22;64927;48.214;16.378;2023-07-29T12:30:12;32.80;29.00
76168;DHT22;64927;48.214;16.378;2023-07-29T12:32:44;32.70;29.30
76168;DHT22;64927;48.214;16.378;2023-07-29T12:35:10;32.80;29.70
76168;DHT22;64927;48.214;16.378;2023-07-29T12:37:36;32.90;29.00
76168;DHT22;64927;48.214;16.378;2023-07-29T12:40:04;33.00;29.30
76168;DHT22;64927;48.214;16.378;2023-07-29T12:42:30;33.20;29.20
76168;DHT22;64927;48.214;16.378;2023-07-29T12:44:58;33.30;29.30
76168;DHT22;64927;48.214;16.378;2023-07-29T12:47:24;33.40;28.70
76168;DHT22;64927;48.214;16.378;2023-07-29T12:49:49;33.40;28.60
76168;DHT22;64927;48.214;16.378;2023-07-29T12:52:15;33.30;28.80
76168;DHT22;64927;48.214;16.378;2023-07-29T12:54:40;33.00;29.20
76168;DHT22;64927;48.214;16.378;2023-07-29T12:57:09;32.80;29.80
76168;DHT22;64927;48.214;16.378;2023-07-29T12:59:37;32.70;29.20
76168;DHT22;64927;48.214;16.378;2023-07-29T13:02:02;32.80;29.40
76168;DHT22;64927;48.214;16.378;2023-07-29T13:04:28;32.90;29.50
76168;DHT22;64927;48.214;16.378;2023-07-29T13:06:54;32.80;29.00
76168;DHT22;64927;48.214;16.378;2023-07-29T13:09:19;32.80;29.30
76168;DHT22;64927;48.214;16.378;2023-07-29T13:11:46;32.80;29.60
76168;DHT22;64927;48.214;16.378;2023-07-29T13:14:11;32.90;29.70
76168;DHT22;64927;48.214;16.378;2023-07-29T13:16:37;33.00;29.80
76168;DHT22;64927;48.214;16.378;2023-07-29T13:19:03;33.10;29.70
76168;DHT22;64927;48.214;16.378;2023-07-29T13:21:28;33.00;29.00
76168;DHT22;64927;48.214;16.378;2023-07-29T13:23:54;32.90;29.20
76168;DHT22;64927;48.214;16.378;2023-07-29T13:26:19;32.80;28.70
76168;DHT22;64927;48.214;16.378;2023-07-29T13:28:47;32.60;28.20
76168;DHT22;64927;48.214;16.378;2023-07-29T13:31:16;32.30;27.80
76168;DHT22;64927;48.214;16.378;2023-07-29T13:33:41;32.20;27.90
76168;DHT22;64927;48.214;16.378;2023-07-29T13:36:07;31.90;28.00
76168;DHT22;64927;48.214;16.378;2023-07-29T13:38:33;31.60;28.20
76168;DHT22;64927;48.214;16.378;2023-07-29T13:40:59;31.40;28.80
76168;DHT22;64927;48.214;16.378;2023-07-29T13:43:25;31.40;29.00
76168;DHT22;64927;48.214;16.378;2023-07-29T13:45:50;31.50;29.20
76168;DHT22;64927;48.214;16.378;2023-07-29T13:48:16;31.40;29.20
76168;DHT22;64927;48.214;16.378;2023-07-29T13:50:42;31.40;29.00
76168;DHT22;64927;48.214;16.378;2023-07-29T13:53:11;31.20;28.90
76168;DHT22;64927;48.214;16.378;2023-07-29T13:55:39;31.10;29.20
76168;DHT22;64927;48.214;16.378;2023-07-29T13:58:07;31.20;29.30
76168;DHT22;64927;48.214;16.378;2023-07-29T14:00:33;31.30;30.00
76168;DHT22;64927;48.214;16.378;2023-07-29T14:02:59;31.40;29.30
76168;DHT22;64927;48.214;16.378;2023-07-29T14:05:24;31.60;30.00
76168;DHT22;64927;48.214;16.378;2023-07-29T14:07:50;31.70;29.50
76168;DHT22;64927;48.214;16.378;2023-07-29T14:10:15;31.80;29.60
76168;DHT22;64927;48.214;16.378;2023-07-29T14:12:43;31.70;29.70
76168;DHT22;64927;48.214;16.378;2023-07-29T14:15:11;31.60;30.10
76168;DHT22;64927;48.214;16.378;2023-07-29T14:17:36;31.50;30.70
76168;DHT22;64927;48.214;16.378;2023-07-29T14:20:02;31.50;30.10
76168;DHT22;64927;48.214;16.378;2023-07-29T14:22:30;31.70;30.00
76168;DHT22;64927;48.214;16.378;2023-07-29T14:24:55;32.00;29.70
76168;DHT22;64927;48.214;16.378;2023-07-29T14:27:23;31.80;30.00
76168;DHT22;64927;48.214;16.378;2023-07-29T14:29:49;31.80;30.00
76168;DHT22;64927;48.214;16.378;2023-07-29T14:32:14;31.60;30.20
76168;DHT22;64927;48.214;16.378;2023-07-29T14:34:42;31.70;30.10
76168;DHT22;64927;48.214;16.378;2023-07-29T14:37:08;31.50;30.30
76168;DHT22;64927;48.214;16.378;2023-07-29T14:39:33;31.30;30.10
76168;DHT22;64927;48.214;16.378;2023-07-29T14:41:59;31.40;30.00
76168;DHT22;64927;48.214;16.378;2023-07-29T14:44:27;31.30;30.40
76168;DHT22;64927;48.214;16.378;2023-07-29T14:46:53;31.30;30.60
76168;DHT22;64927;48.214;16.378;2023-07-29T14:49:19;31.00;31.30
76168;DHT22;64927;48.214;16.378;2023-07-29T14:51:44;30.90;31.00
76168;DHT22;64927;48.214;16.378;2023-07-29T14:54:10;31.00;31.10
76168;DHT22;64927;48.214;16.378;2023-07-29T14:56:38;31.00;31.50
76168;DHT22;64927;48.214;16.378;2023-07-29T14:59:03;30.90;31.70
76168;DHT22;64927;48.214;16.378;2023-07-29T15:01:34;30.90;31.90
76168;DHT22;64927;48.214;16.378;2023-07-29T15:04:02;30.80;32.00
76168;DHT22;64927;48.214;16.378;2023-07-29T15:06:27;30.80;31.80
76168;DHT22;64927;48.214;16.378;2023-07-29T15:08:53;30.80;31.80
76168;DHT22;64927;48.214;16.378;2023-07-29T15:11:19;30.80;31.70
76168;DHT22;64927;48.214;16.378;2023-07-29T15:13:44;30.80;31.70
76168;DHT22;64927;48.214;16.378;2023-07-29T15:16:10;30.80;31.80
76168;DHT22;64927;48.214;16.378;2023-07-29T15:18:35;30.70;32.20
76168;DHT22;64927;48.214;16.378;2023-07-29T15:21:01;30.70;32.20